createdAt,value
2018-10-06T00:00:34.014Z,2.67
2018-10-06T00:03:10.033Z,1.87
2018-10-06T00:05:46.445Z,2.47
2018-10-06T00:08:22.441Z,1.93
2018-10-06T00:10:59.147Z,2.30
2018-10-06T00:13:35.268Z,2.70
2018-10-06T00:16:11.309Z,1.85
2018-10-06T00:18:47.637Z,2.20
2018-10-06T00:21:23.985Z,1.50
2018-10-06T00:23:59.953Z,2.50
2018-10-06T00:26:36.004Z,2.20
2018-10-06T00:29:11.914Z,1.50
2018-10-06T00:31:48.260Z,2.42
2018-10-06T00:34:24.454Z,1.92
2018-10-06T00:37:00.282Z,1.57
2018-10-06T00:39:36.277Z,2.10
2018-10-06T00:42:12.325Z,1.87
2018-10-06T00:44:48.462Z,2.33
2018-10-06T00:47:25.631Z,1.33
2018-10-06T00:50:01.687Z,1.50
2018-10-06T00:52:38.145Z,1.75
2018-10-06T00:55:14.624Z,1.50
2018-10-06T00:57:51.065Z,1.60
2018-10-06T01:00:27.198Z,2.45
2018-10-06T01:03:03.286Z,2.00
2018-10-06T01:05:39.415Z,1.47
2018-10-06T01:08:15.418Z,1.52
2018-10-06T01:10:51.294Z,1.40
2018-10-06T01:13:27.642Z,1.30
2018-10-06T01:16:03.643Z,1.87
2018-10-06T01:18:39.648Z,3.37
2018-10-06T01:21:15.537Z,1.87
2018-10-06T01:23:51.330Z,2.73
2018-10-06T01:26:28.111Z,3.22
2018-10-06T01:29:04.474Z,1.52
2018-10-06T01:31:40.521Z,2.12
2018-10-06T01:34:17.105Z,1.43
2018-10-06T01:36:53.473Z,1.90
2018-10-06T01:39:29.718Z,1.87
2018-10-06T01:42:06.194Z,1.87
2018-10-06T01:44:42.318Z,1.80
2018-10-06T01:47:18.606Z,1.63
2018-10-06T01:49:55.289Z,2.27
2018-10-06T01:52:31.293Z,2.60
2018-10-06T01:55:07.490Z,4.07
2018-10-06T01:57:43.703Z,1.70
2018-10-06T02:00:20.873Z,2.40
2018-10-06T02:02:57.286Z,1.98
2018-10-06T02:05:33.549Z,2.27
2018-10-06T02:08:09.813Z,3.53
2018-10-06T02:10:46.849Z,2.27
2018-10-06T02:13:23.110Z,1.72
2018-10-06T02:15:59.286Z,2.27
2018-10-06T02:18:35.318Z,1.80
2018-10-06T02:21:11.507Z,2.12
2018-10-06T02:23:48.289Z,1.72
2018-10-06T02:26:24.497Z,2.70
2018-10-06T02:29:00.605Z,2.60
2018-10-06T02:31:37.013Z,2.98
2018-10-06T02:34:13.267Z,1.53
2018-10-06T02:36:49.761Z,1.97
2018-10-06T02:39:26.450Z,2.33
2018-10-06T02:42:02.905Z,2.25
2018-10-06T02:44:39.008Z,2.93
2018-10-06T02:47:15.232Z,2.12
2018-10-06T02:49:51.349Z,2.60
2018-10-06T02:52:27.544Z,1.67
2018-10-06T02:55:03.995Z,2.17
2018-10-06T02:57:40.341Z,2.22
2018-10-06T03:00:16.711Z,3.33
2018-10-06T03:02:52.541Z,2.20
2018-10-06T03:05:28.698Z,2.40
2018-10-06T03:08:05.215Z,2.10
2018-10-06T03:10:41.695Z,2.72
2018-10-06T03:13:17.669Z,2.47
2018-10-06T03:15:54.713Z,2.27
2018-10-06T03:18:31.216Z,2.37
2018-10-06T03:21:07.246Z,2.70
2018-10-06T03:23:43.320Z,2.77
2018-10-06T03:26:19.365Z,3.90
2018-10-06T03:28:55.289Z,3.43
2018-10-06T03:31:31.506Z,2.40
2018-10-06T03:34:07.573Z,3.00
2018-10-06T03:36:44.153Z,3.00
2018-10-06T03:39:20.473Z,2.60
2018-10-06T03:41:56.355Z,2.72
2018-10-06T03:44:33.150Z,2.40
2018-10-06T03:47:09.259Z,2.22
2018-10-06T03:49:45.526Z,3.20
2018-10-06T03:52:22.121Z,2.13
2018-10-06T03:54:58.540Z,3.05
2018-10-06T03:57:34.736Z,2.33
2018-10-06T04:00:11.361Z,2.87
2018-10-06T04:02:47.362Z,2.17
2018-10-06T04:05:25.526Z,3.77
2018-10-06T04:08:02.270Z,2.60
2018-10-06T04:10:38.484Z,2.15
2018-10-06T04:13:14.690Z,3.10
2018-10-06T04:15:51.067Z,3.80
2018-10-06T04:18:27.590Z,4.50
2018-10-06T04:21:03.624Z,2.37
2018-10-06T04:23:40.006Z,3.80
2018-10-06T04:26:16.199Z,2.62
2018-10-06T04:28:52.579Z,2.97
2018-10-06T04:33:15.284Z,3.60
2018-10-06T04:35:51.494Z,1.90
2018-10-06T04:38:27.376Z,2.90
2018-10-06T04:41:03.349Z,1.80
2018-10-06T04:43:39.380Z,2.30
2018-10-06T04:46:15.817Z,2.30
2018-10-06T04:48:52.156Z,2.77
2018-10-06T04:51:28.603Z,1.70
2018-10-06T04:54:04.751Z,3.67
2018-10-06T04:56:41.182Z,3.12
2018-10-06T04:59:17.381Z,1.40
2018-10-06T05:01:53.722Z,2.22
2018-10-06T05:04:30.375Z,2.20
2018-10-06T05:07:07.604Z,2.00
2018-10-06T05:09:43.867Z,2.23
2018-10-06T05:12:20.391Z,1.70
2018-10-06T05:14:56.357Z,1.90
2018-10-06T05:17:32.986Z,2.43
2018-10-06T05:20:09.391Z,1.60
2018-10-06T05:22:46.150Z,1.62
2018-10-06T05:25:22.723Z,2.20
2018-10-06T05:27:58.577Z,2.33
2018-10-06T05:30:35.198Z,2.47
2018-10-06T05:33:11.618Z,2.17
2018-10-06T05:35:47.586Z,2.10
2018-10-06T05:38:23.612Z,1.90
2018-10-06T05:40:59.649Z,2.08
2018-10-06T05:43:36.062Z,2.98
2018-10-06T05:46:12.441Z,2.12
2018-10-06T05:48:49.257Z,2.30
2018-10-06T05:51:25.377Z,2.55
2018-10-06T05:54:01.863Z,3.03
2018-10-06T05:56:38.405Z,3.25
2018-10-06T05:59:14.600Z,3.10
2018-10-06T06:01:50.712Z,4.27
2018-10-06T06:04:27.038Z,4.60
2018-10-06T06:07:03.010Z,2.35
2018-10-06T06:09:40.169Z,2.90
2018-10-06T06:12:16.533Z,2.83
2018-10-06T06:14:52.601Z,1.80
2018-10-06T06:17:28.807Z,2.17
2018-10-06T06:20:05.382Z,3.58
2018-10-06T06:22:41.816Z,1.95
2018-10-06T06:25:18.407Z,3.20
2018-10-06T06:27:54.380Z,1.87
2018-10-06T06:30:30.442Z,2.40
2018-10-06T06:33:06.602Z,1.97
2018-10-06T06:35:42.419Z,1.93
2018-10-06T06:38:18.895Z,2.42
2018-10-06T06:40:55.330Z,2.02
2018-10-06T06:43:31.491Z,5.17
2018-10-06T06:46:07.326Z,5.40
2018-10-06T06:48:43.413Z,8.75
2018-10-06T06:51:20.341Z,3.67
2018-10-06T06:53:56.692Z,4.10
2018-10-06T06:56:32.749Z,9.50
2018-10-06T06:59:08.765Z,4.73
2018-10-06T07:01:45.420Z,8.93
2018-10-06T07:06:18.105Z,5.62
2018-10-06T07:08:54.422Z,7.58
2018-10-06T07:11:30.360Z,7.90
2018-10-06T07:14:06.720Z,5.78
2018-10-06T07:16:42.923Z,7.28
2018-10-06T07:19:19.419Z,6.00
2018-10-06T07:21:55.310Z,5.35
2018-10-06T07:24:31.462Z,4.28
2018-10-06T07:27:07.414Z,5.00
2018-10-06T07:29:44.608Z,6.42
2018-10-06T07:32:20.345Z,6.80
2018-10-06T07:34:56.657Z,4.72
2018-10-06T07:37:32.781Z,5.15
2018-10-06T07:40:09.665Z,4.63
2018-10-06T07:42:45.736Z,4.65
2018-10-06T07:45:21.790Z,5.77
2018-10-06T07:47:57.656Z,4.35
2018-10-06T07:50:34.163Z,5.00
2018-10-06T07:53:11.754Z,5.03
2018-10-06T07:55:48.431Z,4.35
2018-10-06T07:58:24.510Z,7.50
2018-10-06T08:01:00.476Z,5.30
2018-10-06T08:03:37.626Z,6.60
2018-10-06T08:06:13.858Z,5.30
2018-10-06T08:08:49.910Z,6.30
2018-10-06T08:11:26.051Z,5.05
2018-10-06T08:14:02.785Z,7.37
2018-10-06T08:16:39.205Z,6.15
2018-10-06T08:19:15.450Z,7.60
2018-10-06T08:21:51.237Z,7.10
2018-10-06T08:24:27.453Z,5.75
2018-10-06T08:27:04.149Z,6.63
2018-10-06T08:29:40.071Z,5.40
2018-10-06T08:32:16.210Z,6.57
2018-10-06T08:34:52.626Z,5.08
2018-10-06T08:37:29.109Z,6.50
2018-10-06T08:40:05.521Z,6.83
2018-10-06T08:42:41.755Z,8.35
2018-10-06T08:45:18.132Z,7.30
2018-10-06T08:47:54.467Z,6.35
2018-10-06T08:50:30.737Z,7.30
2018-10-06T08:53:06.821Z,5.80
2018-10-06T08:55:42.814Z,9.95
2018-10-06T08:58:18.653Z,5.93
2018-10-06T09:00:54.462Z,7.13
2018-10-06T09:03:30.929Z,4.37
2018-10-06T09:06:07.420Z,6.20
2018-10-06T09:08:43.831Z,4.27
2018-10-06T09:11:20.457Z,8.53
2018-10-06T09:13:56.468Z,5.17
2018-10-06T09:16:33.034Z,6.28
2018-10-06T09:19:09.228Z,5.20
2018-10-06T09:21:45.868Z,4.43
2018-10-06T09:24:22.213Z,6.22
2018-10-06T09:26:58.809Z,5.30
2018-10-06T09:29:35.655Z,3.90
2018-10-06T09:32:12.232Z,5.15
2018-10-06T09:34:48.473Z,5.92
2018-10-06T09:37:24.659Z,6.65
2018-10-06T09:40:00.965Z,4.70
2018-10-06T09:42:37.432Z,5.20
2018-10-06T09:45:13.886Z,5.63
2018-10-06T09:47:50.388Z,3.72
2018-10-06T09:50:26.693Z,4.80
2018-10-06T09:53:03.481Z,5.33
2018-10-06T09:55:39.610Z,5.05
2018-10-06T09:58:15.606Z,6.03
2018-10-06T10:00:55.818Z,4.77
2018-10-06T10:03:35.669Z,4.70
2018-10-06T10:06:12.188Z,5.40
2018-10-06T10:08:48.491Z,4.95
2018-10-06T10:11:24.469Z,3.73
2018-10-06T10:14:00.485Z,3.77
2018-10-06T10:16:36.657Z,4.70
2018-10-06T10:19:12.843Z,4.72
2018-10-06T10:21:49.502Z,4.58
2018-10-06T10:24:25.905Z,4.60
2018-10-06T10:27:49.201Z,5.65
2018-10-06T10:30:25.302Z,3.50
2018-10-06T10:33:01.837Z,3.22
2018-10-06T10:35:38.515Z,3.27
2018-10-06T10:38:14.677Z,3.50
2018-10-06T10:40:50.411Z,4.50
2018-10-06T10:43:26.511Z,4.40
2018-10-06T10:46:02.421Z,4.80
2018-10-06T10:48:38.507Z,3.63
2018-10-06T10:51:14.473Z,3.95
2018-10-06T10:53:50.626Z,4.25
2018-10-06T10:56:26.500Z,4.10
2018-10-06T10:59:02.420Z,4.50
2018-10-06T11:01:38.503Z,4.13
2018-10-06T11:04:14.522Z,3.90
2018-10-06T11:06:50.501Z,4.93
2018-10-06T11:09:26.408Z,3.20
2018-10-06T11:12:02.509Z,4.37
2018-10-06T11:14:38.501Z,3.47
2018-10-06T11:17:14.646Z,4.95
2018-10-06T11:19:50.847Z,5.70
2018-10-06T11:22:27.291Z,4.70
2018-10-06T11:25:03.962Z,4.45
2018-10-06T11:27:40.236Z,5.30
2018-10-06T11:30:16.509Z,3.37
2018-10-06T11:32:52.692Z,4.00
2018-10-06T11:35:28.687Z,5.35
2018-10-06T11:38:04.744Z,5.40
2018-10-06T11:40:40.905Z,4.63
2018-10-06T11:43:16.685Z,4.03
2018-10-06T11:45:52.872Z,4.67
2018-10-06T11:48:28.709Z,4.23
2018-10-06T11:51:05.183Z,3.43
2018-10-06T11:53:41.513Z,6.80
2018-10-06T11:56:17.530Z,3.62
2018-10-06T11:58:53.645Z,6.25
2018-10-06T12:01:29.858Z,3.00
2018-10-06T12:04:06.229Z,3.20
2018-10-06T12:06:42.591Z,5.50
2018-10-06T12:09:18.525Z,6.10
2018-10-06T12:11:54.506Z,5.33
2018-10-06T12:14:32.017Z,5.57
2018-10-06T12:17:08.466Z,4.03
2018-10-06T12:19:44.433Z,3.00
2018-10-06T12:22:20.565Z,6.10
2018-10-06T12:24:56.533Z,3.50
2018-10-06T12:27:32.865Z,4.12
2018-10-06T12:30:09.362Z,5.27
2018-10-06T12:32:45.462Z,4.67
2018-10-06T12:35:22.243Z,3.62
2018-10-06T12:37:58.510Z,5.35
2018-10-06T12:40:34.376Z,5.25
2018-10-06T12:43:10.752Z,3.15
2018-10-06T12:45:47.386Z,3.37
2018-10-06T12:48:23.561Z,3.25
2018-10-06T12:50:59.542Z,4.28
2018-10-06T12:53:36.390Z,6.08
2018-10-06T12:56:12.237Z,3.75
2018-10-06T12:58:48.525Z,3.80
2018-10-06T13:01:24.543Z,4.40
2018-10-06T13:04:00.557Z,4.08
2018-10-06T13:06:36.544Z,4.10
2018-10-06T13:09:14.457Z,3.62
2018-10-06T13:11:50.740Z,4.37
2018-10-06T13:14:26.551Z,5.00
2018-10-06T13:17:02.455Z,3.95
2018-10-06T13:19:38.530Z,3.27
2018-10-06T13:22:14.552Z,4.90
2018-10-06T13:24:50.678Z,8.17
2018-10-06T13:27:26.553Z,5.47
2018-10-06T13:30:02.895Z,4.35
2018-10-06T13:32:39.386Z,4.33
2018-10-06T13:35:15.927Z,3.83
2018-10-06T13:37:51.988Z,4.50
2018-10-06T13:40:28.462Z,4.25
2018-10-06T13:43:04.737Z,3.83
2018-10-06T13:45:40.897Z,4.30
2018-10-06T13:48:17.238Z,3.37
2018-10-06T13:50:53.561Z,4.45
2018-10-06T13:53:29.573Z,5.58
2018-10-06T13:56:05.742Z,4.20
2018-10-06T13:58:41.790Z,3.40
2018-10-06T14:01:18.282Z,5.60
2018-10-06T14:03:54.562Z,5.37
2018-10-06T14:06:30.841Z,6.40
2018-10-06T14:09:07.305Z,8.27
2018-10-06T14:11:43.468Z,6.53
2018-10-06T14:14:19.468Z,11.30
2018-10-06T14:16:55.316Z,6.77
2018-10-06T14:19:31.554Z,5.78
2018-10-06T14:22:07.762Z,5.80
2018-10-06T14:24:44.105Z,7.50
2018-10-06T14:27:20.469Z,5.37
2018-10-06T14:29:56.933Z,6.60
2018-10-06T14:32:32.986Z,5.80
2018-10-06T14:35:08.820Z,6.13
2018-10-06T14:37:44.954Z,7.33
2018-10-06T14:40:21.347Z,6.40
2018-10-06T14:42:57.437Z,5.80
2018-10-06T14:45:33.604Z,5.25
2018-10-06T14:48:09.605Z,6.73
2018-10-06T14:50:45.749Z,5.28
2018-10-06T14:53:21.817Z,5.67
2018-10-06T14:55:58.200Z,6.77
2018-10-06T14:58:34.576Z,10.37
2018-10-06T15:01:12.045Z,5.10
2018-10-06T15:03:48.917Z,7.60
2018-10-06T15:06:26.378Z,7.40
2018-10-06T15:09:02.736Z,9.68
2018-10-06T15:11:38.937Z,6.80
2018-10-06T15:14:15.581Z,7.12
2018-10-06T15:16:51.422Z,5.20
2018-10-06T15:19:27.617Z,5.97
2018-10-06T15:22:03.586Z,6.95
2018-10-06T15:24:39.993Z,7.17
2018-10-06T15:27:16.014Z,7.47
2018-10-06T15:29:51.765Z,6.73
2018-10-06T15:32:27.931Z,6.00
2018-10-06T15:35:03.786Z,6.53
2018-10-06T15:37:40.043Z,6.17
2018-10-06T15:40:16.367Z,5.33
2018-10-06T15:42:52.655Z,5.57
2018-10-06T15:45:28.774Z,7.08
2018-10-06T15:48:04.773Z,4.90
2018-10-06T15:50:41.576Z,7.62
2018-10-06T15:53:17.721Z,5.40
2018-10-06T15:55:53.804Z,5.70
2018-10-06T15:58:29.993Z,6.30
2018-10-06T16:01:06.234Z,4.75
2018-10-06T16:03:42.362Z,4.40
2018-10-06T16:06:21.140Z,6.57
2018-10-06T16:08:57.805Z,7.55
2018-10-06T16:11:35.605Z,7.20
2018-10-06T16:14:11.727Z,6.57
2018-10-06T16:16:48.021Z,6.40
2018-10-06T16:19:23.804Z,4.97
2018-10-06T16:21:59.819Z,6.00
2018-10-06T16:24:36.361Z,7.97
2018-10-06T16:27:12.625Z,6.63
2018-10-06T16:29:48.605Z,8.20
2018-10-06T16:32:24.336Z,5.00
2018-10-06T16:35:01.262Z,4.20
2018-10-06T16:37:37.573Z,3.90
2018-10-06T16:40:14.180Z,5.00
2018-10-06T16:42:50.521Z,3.65
2018-10-06T16:45:26.616Z,5.00
2018-10-06T16:48:02.739Z,3.47
2018-10-06T16:50:38.621Z,3.45
2018-10-06T16:53:14.853Z,2.95
2018-10-06T16:55:50.619Z,3.83
2018-10-06T16:58:26.949Z,3.23
2018-10-06T17:01:02.997Z,5.93
2018-10-06T17:03:38.825Z,5.40
2018-10-06T17:06:15.309Z,3.87
2018-10-06T17:08:51.624Z,3.90
2018-10-06T17:11:27.622Z,3.30
2018-10-06T17:14:04.835Z,3.27
2018-10-06T17:16:40.793Z,3.40
2018-10-06T17:19:16.882Z,3.30
2018-10-06T17:21:52.861Z,4.80
2018-10-06T17:24:29.460Z,5.27
2018-10-06T17:27:05.798Z,3.67
2018-10-06T17:29:41.822Z,2.90
2018-10-06T17:32:18.041Z,3.90
2018-10-06T17:34:54.914Z,3.27
2018-10-06T17:37:30.925Z,1.93
2018-10-06T17:40:06.826Z,3.00
2018-10-06T17:42:42.816Z,2.80
2018-10-06T17:45:18.813Z,3.53
2018-10-06T17:47:54.917Z,2.72
2018-10-06T17:50:31.443Z,3.27
2018-10-06T17:53:07.477Z,2.43
2018-10-06T17:55:43.549Z,3.50
2018-10-06T17:58:19.818Z,2.10
2018-10-06T18:00:55.833Z,2.33
2018-10-06T18:03:31.976Z,3.37
2018-10-06T18:08:55.972Z,4.33
2018-10-06T18:11:32.550Z,2.62
2018-10-06T18:14:08.774Z,3.17
2018-10-06T18:16:44.818Z,5.00
2018-10-06T18:19:20.874Z,7.67
2018-10-06T18:21:56.618Z,6.70
2018-10-06T18:24:32.977Z,4.55
2018-10-06T18:27:09.479Z,4.73
2018-10-06T18:29:45.671Z,3.80
2018-10-06T18:32:21.830Z,4.37
2018-10-06T18:34:57.826Z,3.87
2018-10-06T18:37:33.855Z,4.78
2018-10-06T18:40:11.985Z,3.40
2018-10-06T18:42:48.306Z,3.27
2018-10-06T18:45:26.352Z,5.37
2018-10-06T18:48:02.653Z,4.25
2018-10-06T18:50:39.041Z,3.50
2018-10-06T18:53:16.668Z,2.87
2018-10-06T18:55:52.458Z,3.87
2018-10-06T18:58:28.423Z,2.80
2018-10-06T19:01:04.476Z,2.72
2018-10-06T19:03:40.531Z,2.70
2018-10-06T19:06:17.314Z,3.27
2018-10-06T19:08:53.650Z,2.45
2018-10-06T19:11:29.865Z,4.53
2018-10-06T19:14:06.699Z,3.27
2018-10-06T19:16:42.948Z,3.53
2018-10-06T19:19:19.143Z,2.77
2018-10-06T19:21:55.574Z,2.17
2018-10-06T19:24:31.697Z,3.50
2018-10-06T19:27:07.853Z,1.70
2018-10-06T19:29:43.842Z,1.60
2018-10-06T19:32:20.121Z,2.17
2018-10-06T19:34:56.802Z,2.22
2018-10-06T19:37:33.039Z,2.70
2018-10-06T19:40:09.375Z,2.15
2018-10-06T19:42:45.567Z,3.10
2018-10-06T19:45:22.862Z,3.83
2018-10-06T19:47:59.121Z,3.80
2018-10-06T19:50:35.543Z,2.62
2018-10-06T19:53:11.865Z,1.60
2018-10-06T19:55:48.329Z,1.90
2018-10-06T19:58:24.660Z,2.47
2018-10-06T20:01:01.046Z,3.73
2018-10-06T20:03:38.360Z,2.12
2018-10-06T20:06:14.861Z,2.63
2018-10-06T20:08:51.435Z,2.80
2018-10-06T20:11:27.853Z,2.70
2018-10-06T20:14:03.893Z,2.00
2018-10-06T20:16:40.465Z,1.85
2018-10-06T20:19:16.922Z,1.87
2018-10-06T20:21:52.910Z,2.13
2018-10-06T20:24:29.073Z,1.70
2018-10-06T20:27:05.388Z,2.57
2018-10-06T20:29:41.857Z,2.58
2018-10-06T20:32:17.865Z,2.10
2018-10-06T20:36:23.045Z,2.83
2018-10-06T20:38:59.522Z,3.60
2018-10-06T20:41:36.033Z,2.53
2018-10-06T20:44:11.958Z,1.97
2018-10-06T20:46:48.337Z,2.60
2018-10-06T20:49:25.355Z,2.83
2018-10-06T20:52:01.684Z,1.67
2018-10-06T20:54:38.294Z,5.00
2018-10-06T20:57:14.472Z,2.40
2018-10-06T20:59:51.069Z,3.02
2018-10-06T21:02:39.345Z,3.30
2018-10-06T21:08:59.401Z,5.33
2018-10-06T21:11:36.721Z,3.95
2018-10-06T21:14:13.034Z,2.80
2018-10-06T21:16:48.886Z,3.50
2018-10-06T21:19:24.891Z,3.57
2018-10-06T21:22:00.996Z,4.00
2018-10-06T21:24:38.347Z,4.40
2018-10-06T21:27:14.624Z,2.98
2018-10-06T21:29:50.886Z,3.15
2018-10-06T21:32:27.094Z,2.47
2018-10-06T21:35:03.690Z,2.30
2018-10-06T21:37:39.899Z,4.00
2018-10-06T21:40:15.924Z,3.25
2018-10-06T21:42:51.732Z,3.37
2018-10-06T21:45:27.728Z,3.20
2018-10-06T21:48:05.166Z,3.00
2018-10-06T21:50:41.547Z,4.90
2018-10-06T21:53:17.529Z,3.20
2018-10-06T21:55:53.922Z,4.57
2018-10-06T21:58:30.142Z,2.20
2018-10-06T22:01:13.385Z,4.57
2018-10-06T22:03:49.659Z,3.95
2018-10-06T22:06:25.866Z,3.97
2018-10-06T22:09:02.641Z,5.28
2018-10-06T22:11:38.725Z,3.05
2018-10-06T22:14:15.090Z,4.00
2018-10-06T22:16:51.558Z,5.00
2018-10-06T22:19:27.565Z,3.00
2018-10-06T22:22:03.902Z,2.50
2018-10-06T22:24:39.732Z,4.22
2018-10-06T22:27:15.730Z,2.60
2018-10-06T22:29:51.933Z,2.87
2018-10-06T22:32:28.509Z,3.50
2018-10-06T22:35:04.530Z,2.92
2018-10-06T22:37:40.933Z,2.23
2018-10-06T22:40:17.098Z,2.67
2018-10-06T22:42:53.204Z,2.50
2018-10-06T22:45:28.962Z,2.63
2018-10-06T22:48:05.042Z,3.27
2018-10-06T22:50:40.914Z,2.45
2018-10-06T22:53:17.129Z,2.83
2018-10-06T22:55:53.361Z,1.72
2018-10-06T22:58:29.589Z,2.20
2018-10-06T23:01:05.737Z,4.37
2018-10-06T23:03:42.083Z,4.45
2018-10-06T23:06:52.631Z,2.10
2018-10-06T23:09:28.924Z,4.40
2018-10-06T23:12:05.155Z,3.25
2018-10-06T23:14:41.369Z,2.92
2018-10-06T23:17:18.175Z,3.27
2018-10-06T23:19:53.957Z,3.67
2018-10-06T23:22:30.101Z,9.40
2018-10-06T23:25:06.469Z,3.55
2018-10-06T23:27:42.929Z,4.22
2018-10-06T23:30:19.051Z,3.50
2018-10-06T23:32:55.041Z,3.23
2018-10-06T23:35:31.107Z,4.00
2018-10-06T23:38:07.661Z,3.52
2018-10-06T23:40:44.101Z,3.20
2018-10-06T23:43:20.661Z,4.22
2018-10-06T23:45:56.689Z,3.05
2018-10-06T23:48:32.760Z,2.63
2018-10-06T23:51:09.117Z,4.37
2018-10-06T23:53:45.146Z,2.10
2018-10-06T23:56:21.146Z,2.60
2018-10-06T23:58:57.461Z,3.08
